08AR weather

CLOSED Crittenden Regional Hospital Heliport
West Memphis, Arkansas, United States

Public forecast

Using degrees Fahrenheit for public forecast. Weather courtesy of forecast.io.

Closest aviation weather report (METAR) to Crittenden Regional Hospital Heliport

Closest report is West Memphis Municipal Airport, 2.2 nm (4.1 km) W. Retrieved 2020/08/08 07:53 UTC (26 minutes ago):

KAWM 080753Z AUTO 00000KT 10SM CLR 22/21 A3010 RMK AO2 SLP187 T02220206

Closest aviation forecast (TAF) to Crittenden Regional Hospital Heliport

Closest forecast is Memphis International Airport, 12.1 nm (22.4 km) ESE. Retrieved 2020/08/08 06:22 UTC (2 hours ago):

TAF KMEM 080520Z 0806/0912 07005KT P6SM FEW250 FM081400 18004KT P6SM FEW250 FM081800 23005KT P6SM FEW250 FM090300 16003KT P6SM FEW250